ADDS METAR Data INFO
IDs: Format: Raw Decoded Include TAF

Data at: 0713 UTC 19 Oct 2017

KRDD 190653Z 00000KT 9SM CLR 12/02 A2991 RMK AO2 SLP124 T01170022
KRDD 190553Z 30003KT 10SM CLR 13/02 A2991 RMK AO2 SLP125 T01330022 10272 20133 50005
KRDD 190453Z 03003KT 10SM CLR 15/02 A2991 RMK AO2 SLP126 T01500017
KRDD 190353Z 00000KT 10SM CLR 17/02 A2990 RMK AO2 SLP123 T01670022
KRDD 190253Z 15004KT 10SM CLR 18/02 A2989 RMK AO2 SLP121 T01830017 55004
KRDD 190153Z 15006KT 10SM CLR 20/02 A2989 RMK AO2 SLP119 T02000017
KRDD 190053Z 15006KT 10SM CLR 25/01 A2989 RMK AO2 SLP120 T02500006
KRDD 182353Z 17006KT 10SM CLR 27/M01 A2991 RMK AO2 SLP123 T02721011 10278 20206 56018
KRDD 182253Z 14006KT 10SM CLR 28/M01 A2992 RMK AO2 SLP127 T02781011
KRDD 182153Z VRB03KT 10SM CLR 27/M02 A2994 RMK AO2 SLP134 T02721022
KRDD 182053Z 17006KT 10SM CLR 27/M02 A2996 RMK AO2 SLP141 T02671017 58023
KRDD 181953Z VRB04KT 10SM CLR 25/00 A2999 RMK AO2 SLP151 T02500000
KRDD 181853Z 00000KT 10SM CLR 23/M01 A3001 RMK AO2 SLP157 T02331011
KRDD 181753Z 32003KT 10SM CLR 21/01 A3003 RMK AO2 SLP165 T02060011 10206 20056 58002
KRDD 181653Z 00000KT 10SM CLR 16/02 A3004 RMK AO2 SLP170 T01560017
KRDD 181553Z 00000KT 10SM CLR 11/01 A3004 RMK AO2 SLP170 T01060011
KRDD 181453Z 00000KT 9SM CLR 07/01 A3003 RMK AO2 SLP168 T00720011 53002
KRDD 181353Z 00000KT 10SM CLR 06/00 A3002 RMK AO2 SLP164 T00610000
KRDD 181253Z AUTO 00000KT 10SM CLR 07/01 A3002 RMK AO2 SLP164 T00720006
KRDD 181153Z AUTO 00000KT 10SM CLR 08/01 A3003 RMK AO2 SLP164 T00780011 10133 20078 58008
KRDD 181053Z AUTO 00000KT 10SM CLR 08/01 A3004 RMK AO2 SLP167 T00830006
KRDD 180953Z AUTO 36003KT 10SM CLR 08/01 A3005 RMK AO2 SLP171 T00830006
KRDD 180853Z AUTO 00000KT 10SM CLR 10/01 A3005 RMK AO2 SLP173 T01000011 58001
KRDD 180753Z AUTO 00000KT 10SM CLR 11/01 A3006 RMK AO2 SLP174 T01060011 402940056
KRDD 180653Z AUTO 00000KT 10SM CLR 12/01 A3006 RMK AO2 SLP175 T01170011
KRDD 180553Z AUTO 00000KT 10SM CLR 13/01 A3006 RMK AO2 SLP175 T01330011 10289 20128 53012
KRDD 180453Z AUTO 00000KT 10SM CLR 14/01 A3004 RMK AO2 SLP170 T01440011
KRDD 180353Z 00000KT 10SM CLR 17/01 A3003 RMK AO2 SLP169 T01670006
KRDD 180253Z 00000KT 10SM CLR 20/00 A3002 RMK AO2 SLP164 T02000000 53003
KRDD 180153Z 00000KT 10SM CLR 22/00 A3001 RMK AO2 SLP161 T02220000
KRDD 180053Z 14006KT 10SM CLR 27/M03 A3000 RMK AO2 SLP155 T02671028
KRDD 172353Z 14006KT 10SM CLR 29/M04 A3001 RMK AO2 SLP158 T02891044 10294 20206 56013
KRDD 172253Z 17006KT 10SM CLR 29/M06 A3002 RMK AO2 SLP162 T02891056
KRDD 172153Z VRB03KT 10SM CLR 29/M09 A3003 RMK AO2 SLP165 T02891089
KRDD 172053Z 19004KT 10SM CLR 27/M03 A3005 RMK AO2 SLP171 T02721033 58025
KRDD 171953Z 00000KT 10SM CLR 27/M04 A3007 RMK AO2 SLP180 T02721039